Lower Chichester, Pennsylvania
Current Conditions -  °F | °C
As of 6:54 AM on Friday 24 Oct 2014 (Local Time) from KPHL Reporting Station
Broken Clouds Broken Clouds  
Wind Chill: 57°   Ceiling: 3300
Heat Index: 57°   Visibility: 10mi
Dew Point: 44°   Wind: 15mph
Humidity: 62%   Direction: 320°NW
Pressure: 29.86"   Gusts: NA
Location:  39.8393°N, 75.4661°W
Report Text: KPHL 241054Z 32013KT 10SM BKN033 BKN045 14/07 A2986 RMK AO2 SLP110 T01390067 PNO $
Loading
Personal Weather Stations






























Interactive Weather Map
Tropical Storm Tracking
New forecast layout! Learn more

10-Day Weather Forecast

Advertisements
Track Severe Weather on mobile